Shawnee Mission, KS (66202)

6:09 AM CDT on July 28, 2016 (GMT -0500)
Morrison Ridge | | Change Station

Elev 1053 ft 39.03 °N, 94.66 °W | Updated 7 minutes ago

Clear
Clear
76.5 °F
Feels Like 78 °F
N
0.6
Wind Variable Wind from NNW
Gusts 1.9 mph

Today
High -- | Low -- °F
--% Chance of Precip.
Yesterday
High -- | Low -- °F
Precip. -- in
Pressure 29.91 in
Visibility 10.0 miles
Clouds Clear
Heat Index 78 °F
Dew Point 71 °F
Humidity 84%
Rainfall 0.00 in
Snow Depth Not available.
6:16 AM 8:33 PM
Waning Crescent, 33% visible
METAR KMKC 281054Z 00000KT 10SM CLR 24/22 A2993 RMK AO2 SLP127 T02390217
Pressure 29.91 in
Visibility 10.0 miles
Clouds Clear
Heat Index 78 °F
Dew Point 71 °F
Humidity 84%
Rainfall 0.00 in
Snow Depth Not available.
6:16 AM 8:33 PM
Waning Crescent, 33% visible
METAR KMKC 281054Z 00000KT 10SM CLR 24/22 A2993 RMK AO2 SLP127 T02390217

10-Day Weather Forecast

Almanac

Astronomy

Jul. 28, 2016 Rise Set
Actual Time
Civil Twilight
Nautical Twilight
Astronomical Twilight
Moon
Length of Visible Light
Length of Day
Tomorrow will be .
, % of the Moon is Illuminated

Today's Extremes

State Highs State Lows

Community

WunderPhotos

Upload Photos

1,928,082 photos uploaded!

WunderBlog® & News

Nearby

Air Quality

  Air Quality AQ Index Pollutant
Not available.

Snow Depth

Station Depth Elevation

Earthquake Activity

City Distance Mag. Time & Date
Minimum magnitude displayed is 2.5.

Coastal Water Temperatures

Place Temperature

Stations

Nearby Weather Stations

Station Location Temp. Windchill Dew Point Humidity Wind Precip. Elev Updated Type
                   

Watches & Warnings

There are currently no watches in effect.